Time;durP1;ratioP1;P1;durP2;ratioP2;P2;SDS_P1;SDS_P2;PMS_P1;PMS_P2;Temp;Humidity;BMP_temperature;BMP_pressure;BME280_temperature;BME280_humidity;BME280_pressure;Samples;Min_cycle;Max_cycle;Signal;HPM_P1;HPM_P2
2021/11/11 00:00:01;;;;;;;21.33;7.03;;;10.00;99.90;;;;;;6242084;22;20065;-62
2021/11/11 00:02:26;;;;;;;22.48;6.55;;;10.00;99.90;;;;;;6239750;22;20008;-61
2021/11/11 00:04:52;;;;;;;17.85;7.22;;;10.00;99.90;;;;;;6241448;22;20004;-62
2021/11/11 00:07:18;;;;;;;19.52;7.07;;;10.00;99.90;;;;;;6242212;22;20308;-62
2021/11/11 00:09:43;;;;;;;23.35;5.82;;;10.00;99.90;;;;;;6240622;22;20350;-62
2021/11/11 00:12:09;;;;;;;22.20;6.45;;;10.00;99.90;;;;;;6241520;22;20012;-62
2021/11/11 00:14:34;;;;;;;21.77;7.82;;;10.00;99.90;;;;;;6241308;22;20008;-61
2021/11/11 00:17:01;;;;;;;16.23;6.25;;;10.00;99.90;;;;;;6242119;22;20031;-61
2021/11/11 00:19:26;;;;;;;18.23;6.97;;;10.00;99.90;;;;;;6239599;22;20027;-63
2021/11/11 00:21:52;;;;;;;18.95;7.05;;;10.00;99.90;;;;;;6241196;22;20004;-62
2021/11/11 00:24:17;;;;;;;17.95;6.85;;;10.00;99.90;;;;;;6241891;22;20083;-61
2021/11/11 00:26:43;;;;;;;15.40;7.18;;;10.00;99.90;;;;;;6240927;22;20043;-62
2021/11/11 00:29:09;;;;;;;17.00;7.18;;;10.00;99.90;;;;;;6242111;22;20038;-62
2021/11/11 00:31:35;;;;;;;16.58;6.85;;;10.00;99.90;;;;;;6240846;22;20353;-62
2021/11/11 00:34:00;;;;;;;23.17;6.75;;;10.00;99.90;;;;;;6242122;22;20016;-62
2021/11/11 00:36:27;;;;;;;16.55;6.75;;;10.00;99.90;;;;;;6241734;22;20008;-63
2021/11/11 00:38:53;;;;;;;20.85;6.38;;;10.00;99.90;;;;;;6241356;22;20434;-62
2021/11/11 00:41:19;;;;;;;17.30;6.50;;;10.00;99.90;;;;;;6241253;22;20092;-66
2021/11/11 00:43:44;;;;;;;20.20;7.03;;;10.00;99.90;;;;;;6239442;22;20016;-62
2021/11/11 00:46:10;;;;;;;17.80;7.20;;;10.10;99.90;;;;;;6241833;22;20011;-62
2021/11/11 00:48:36;;;;;;;21.92;7.75;;;10.10;99.90;;;;;;6241121;22;20719;-62
2021/11/11 00:51:02;;;;;;;20.95;6.18;;;10.00;99.90;;;;;;6241989;22;20004;-62
2021/11/11 00:53:28;;;;;;;15.30;6.35;;;10.00;99.90;;;;;;6238956;22;20012;-61
2021/11/11 00:55:53;;;;;;;19.90;6.03;;;10.00;99.90;;;;;;6239627;23;20079;-62
2021/11/11 00:58:19;;;;;;;20.63;6.60;;;10.00;99.90;;;;;;6241332;22;20040;-63
2021/11/11 01:00:45;;;;;;;17.42;6.38;;;10.00;99.90;;;;;;6239348;22;20106;-61
2021/11/11 01:03:12;;;;;;;16.45;5.97;;;10.00;99.90;;;;;;6241563;22;20088;-62
2021/11/11 01:05:39;;;;;;;20.27;6.82;;;10.00;99.90;;;;;;6238206;22;20012;-61
2021/11/11 01:08:05;;;;;;;23.65;6.40;;;10.10;99.90;;;;;;6239964;23;20034;-61
2021/11/11 01:10:31;;;;;;;14.25;5.97;;;10.00;99.90;;;;;;6239838;22;20034;-62
2021/11/11 01:12:57;;;;;;;17.63;6.32;;;10.00;99.90;;;;;;6241461;22;20012;-62
2021/11/11 01:15:29;;;;;;;23.88;6.68;;;10.00;99.90;;;;;;6240675;22;20008;-62
2021/11/11 01:17:54;;;;;;;21.75;6.38;;;10.00;99.90;;;;;;6241340;22;20439;-61
2021/11/11 01:20:21;;;;;;;20.65;6.63;;;10.00;99.90;;;;;;6240709;22;20016;-62
2021/11/11 01:22:48;;;;;;;15.07;6.15;;;10.00;99.90;;;;;;6240740;22;20019;-62
2021/11/11 01:25:18;;;;;;;15.40;6.78;;;10.00;99.90;;;;;;6241074;22;20012;-61
2021/11/11 01:27:44;;;;;;;20.47;7.30;;;9.90;99.90;;;;;;6240612;22;20347;-61
2021/11/11 01:30:11;;;;;;;20.30;6.22;;;9.90;99.90;;;;;;6240981;22;20581;-61
2021/11/11 01:32:37;;;;;;;26.00;6.85;;;9.90;99.90;;;;;;6238059;22;20019;-62
2021/11/11 01:35:04;;;;;;;22.35;7.53;;;9.90;99.90;;;;;;6241382;22;19996;-62
2021/11/11 01:37:30;;;;;;;17.08;6.78;;;9.90;99.90;;;;;;6238262;22;20012;-61
2021/11/11 01:39:55;;;;;;;16.70;7.65;;;10.00;99.90;;;;;;6240267;22;20004;-62
2021/11/11 01:42:21;;;;;;;18.67;6.82;;;10.00;99.90;;;;;;6240208;22;20751;-61
2021/11/11 01:44:53;;;;;;;21.52;7.43;;;10.00;99.90;;;;;;6240796;22;20019;-62
2021/11/11 01:47:20;;;;;;;22.33;6.70;;;9.90;99.90;;;;;;6241467;22;20008;-61
2021/11/11 01:49:46;;;;;;;18.98;7.10;;;9.90;99.90;;;;;;6240626;22;20008;-62
2021/11/11 01:52:13;;;;;;;19.67;7.18;;;10.00;99.90;;;;;;6240787;22;20058;-61
2021/11/11 01:54:39;;;;;;;26.73;7.68;;;9.90;99.90;;;;;;6240214;22;20007;-62
2021/11/11 01:57:06;;;;;;;21.30;7.18;;;9.90;99.90;;;;;;6241277;22;20001;-61
2021/11/11 01:59:32;;;;;;;24.08;7.25;;;9.90;99.90;;;;;;6240010;22;20445;-61
2021/11/11 02:01:58;;;;;;;19.25;7.88;;;10.00;99.90;;;;;;6240010;22;20058;-62
2021/11/11 02:04:24;;;;;;;19.98;7.00;;;9.90;99.90;;;;;;6240698;22;20008;-62
2021/11/11 02:06:49;;;;;;;16.58;6.07;;;9.90;99.90;;;;;;6240022;22;20384;-62
2021/11/11 02:09:16;;;;;;;20.88;6.53;;;9.90;99.90;;;;;;6240515;22;20075;-62
2021/11/11 02:11:42;;;;;;;16.77;6.13;;;9.90;99.90;;;;;;6239462;22;20008;-62
2021/11/11 02:14:08;;;;;;;20.58;6.28;;;9.90;99.90;;;;;;6241051;22;20054;-62
2021/11/11 02:16:36;;;;;;;24.42;6.90;;;9.90;99.90;;;;;;6240450;22;20106;-64
2021/11/11 02:19:02;;;;;;;27.25;7.00;;;9.90;99.90;;;;;;6239691;22;20330;-63
2021/11/11 02:21:27;;;;;;;17.45;6.55;;;9.90;99.90;;;;;;6239889;22;20427;-63
2021/11/11 02:23:54;;;;;;;22.40;6.47;;;9.90;99.90;;;;;;6240214;22;20004;-62
2021/11/11 02:26:19;;;;;;;24.45;7.63;;;9.90;99.90;;;;;;6239117;22;20004;-65
2021/11/11 02:28:45;;;;;;;19.98;6.88;;;9.90;99.90;;;;;;6238616;22;20508;-63
2021/11/11 02:31:11;;;;;;;23.00;7.30;;;9.90;99.90;;;;;;6240515;22;20004;-62
2021/11/11 02:33:37;;;;;;;21.83;6.72;;;10.00;99.90;;;;;;6239595;22;20015;-63
2021/11/11 02:36:04;;;;;;;16.23;6.75;;;9.90;99.90;;;;;;6240471;22;20015;-61
2021/11/11 02:38:30;;;;;;;19.65;7.32;;;9.90;99.90;;;;;;6237921;22;20008;-65
2021/11/11 02:40:56;;;;;;;21.58;8.40;;;9.90;99.90;;;;;;6238813;22;20065;-63
2021/11/11 02:43:25;;;;;;;16.15;7.18;;;9.90;99.90;;;;;;6239904;22;20538;-62
2021/11/11 02:45:51;;;;;;;26.65;7.22;;;9.80;99.90;;;;;;6238771;22;20380;-62
2021/11/11 02:48:19;;;;;;;19.63;6.85;;;9.90;99.90;;;;;;6240676;22;20027;-62
2021/11/11 02:50:46;;;;;;;20.13;6.97;;;9.80;99.90;;;;;;6239314;22;20087;-62
2021/11/11 02:53:12;;;;;;;17.50;6.57;;;9.90;99.90;;;;;;6240303;22;20012;-62
2021/11/11 02:55:38;;;;;;;22.15;6.38;;;9.90;99.90;;;;;;6239594;22;20012;-63
2021/11/11 02:58:06;;;;;;;19.25;7.38;;;9.90;99.90;;;;;;6240688;22;20015;-62
2021/11/11 03:00:46;;;;;;;28.10;8.55;;;9.90;99.90;;;;;;6239469;22;20013;-62
2021/11/11 03:03:12;;;;;;;25.25;7.13;;;9.90;99.90;;;;;;6238566;23;20438;-61
2021/11/11 03:05:38;;;;;;;18.20;7.05;;;9.90;99.90;;;;;;6239711;22;20019;-62
2021/11/11 03:08:06;;;;;;;27.35;7.85;;;9.90;99.90;;;;;;6241138;22;20035;-61
2021/11/11 03:10:33;;;;;;;28.35;7.22;;;9.90;99.90;;;;;;6237767;22;20008;-62
2021/11/11 03:13:00;;;;;;;20.75;6.90;;;10.00;99.90;;;;;;6239367;22;20016;-61
2021/11/11 03:15:27;;;;;;;18.48;7.03;;;9.90;99.90;;;;;;6240037;22;20016;-62
2021/11/11 03:17:53;;;;;;;20.83;6.80;;;9.90;99.90;;;;;;6239774;22;20123;-61
2021/11/11 03:20:20;;;;;;;18.27;6.80;;;9.90;99.90;;;;;;6240139;22;20039;-61
2021/11/11 03:22:46;;;;;;;20.38;7.28;;;9.90;99.90;;;;;;6239389;22;20011;-62
2021/11/11 03:25:18;;;;;;;20.08;7.63;;;9.90;99.90;;;;;;6241658;22;20027;-61
2021/11/11 03:27:44;;;;;;;25.35;6.78;;;9.80;99.90;;;;;;6239762;22;20435;-61
2021/11/11 03:30:15;;;;;;;21.77;7.93;;;9.70;99.90;;;;;;6241972;22;20022;-62
2021/11/11 03:32:41;;;;;;;;;;;9.70;99.90;;;;;;6241586;22;20095;-61
2021/11/11 03:35:08;;;;;;;21.40;6.97;;;9.70;99.90;;;;;;6242537;22;19907;-61
2021/11/11 03:37:35;;;;;;;25.73;9.40;;;9.80;99.90;;;;;;6241086;22;20069;-61
2021/11/11 03:40:05;;;;;;;23.50;8.70;;;9.70;99.90;;;;;;6242343;22;20090;-62
2021/11/11 03:42:30;;;;;;;22.30;7.80;;;9.70;99.90;;;;;;6238839;22;20012;-62
2021/11/11 03:44:56;;;;;;;19.85;7.10;;;9.70;99.90;;;;;;6242146;22;20084;-62
2021/11/11 03:47:22;;;;;;;26.25;7.72;;;9.70;99.90;;;;;;6241639;22;20024;-62
2021/11/11 03:49:47;;;;;;;19.17;7.70;;;9.70;99.90;;;;;;6239895;22;20577;-63
2021/11/11 03:52:13;;;;;;;16.25;7.05;;;9.70;99.90;;;;;;6241955;22;20016;-61
2021/11/11 03:54:39;;;;;;;22.40;7.75;;;9.70;99.90;;;;;;6239109;22;20008;-62
2021/11/11 03:57:05;;;;;;;22.42;8.27;;;9.70;99.90;;;;;;6242094;22;20004;-61
2021/11/11 03:59:34;;;;;;;24.38;8.48;;;9.70;99.90;;;;;;6238413;22;20008;-62
2021/11/11 04:02:00;;;;;;;20.42;7.85;;;9.70;99.90;;;;;;6240586;22;20012;-62
2021/11/11 04:04:25;;;;;;;26.63;7.93;;;9.70;99.90;;;;;;6239670;22;20012;-62
2021/11/11 04:06:51;;;;;;;26.67;8.95;;;9.70;99.90;;;;;;6241721;22;20012;-62
2021/11/11 04:09:17;;;;;;;25.42;8.30;;;9.70;99.90;;;;;;6241896;22;20529;-62
2021/11/11 04:11:43;;;;;;;21.23;7.78;;;9.70;99.90;;;;;;6239814;22;20008;-63
2021/11/11 04:14:09;;;;;;;22.17;7.35;;;9.70;99.90;;;;;;6242022;22;20038;-62
2021/11/11 04:16:35;;;;;;;26.00;8.57;;;9.80;99.90;;;;;;6240986;22;20008;-61
2021/11/11 04:19:01;;;;;;;23.10;8.88;;;9.70;99.90;;;;;;6241851;22;20008;-61
2021/11/11 04:21:27;;;;;;;21.80;8.45;;;9.70;99.90;;;;;;6240727;22;20342;-62
2021/11/11 04:23:53;;;;;;;18.15;7.60;;;9.60;99.90;;;;;;6239604;22;20008;-62
2021/11/11 04:26:26;;;;;;;27.52;9.23;;;9.70;99.90;;;;;;6241653;22;20009;-62
2021/11/11 04:28:59;;;;;;;21.83;8.05;;;9.60;99.90;;;;;;6240930;22;20343;-61
2021/11/11 04:33:57;;;;;;;23.33;8.43;;;9.70;99.90;;;;;;6241383;22;20039;-62
2021/11/11 04:39:13;;;;;;;18.83;7.75;;;9.60;99.90;;;;;;6241330;22;20008;-62
2021/11/11 04:44:42;;;;;;;21.92;7.63;;;9.60;99.90;;;;;;6241215;22;20695;-62
2021/11/11 05:03:10;;;;;;;27.08;8.52;;;9.50;99.90;;;;;;6240544;23;20326;-62
2021/11/11 05:05:37;;;;;;;26.88;9.20;;;9.60;99.90;;;;;;6240192;23;20008;-62
2021/11/11 05:08:02;;;;;;;23.02;9.05;;;9.50;99.90;;;;;;6240929;23;20007;-61
2021/11/11 05:10:28;;;;;;;24.00;8.65;;;9.50;99.90;;;;;;6240711;22;20091;-62
2021/11/11 05:12:55;;;;;;;27.13;10.00;;;9.50;99.90;;;;;;6240456;23;20008;-62
2021/11/11 05:15:21;;;;;;;29.13;8.63;;;9.50;99.90;;;;;;6240427;23;20016;-62
2021/11/11 05:17:47;;;;;;;18.63;8.35;;;9.50;99.90;;;;;;6213791;23;20004;-61
2021/11/11 05:20:19;;;;;;;32.45;9.45;;;9.50;99.90;;;;;;6240954;22;20011;-62
2021/11/11 05:22:44;;;;;;;33.90;9.80;;;9.50;99.90;;;;;;6212574;23;20038;-62
2021/11/11 05:25:12;;;;;;;26.13;8.68;;;9.40;99.90;;;;;;6240854;23;20020;-61
2021/11/11 05:27:38;;;;;;;30.38;11.35;;;9.50;99.90;;;;;;6240082;23;20016;-61
2021/11/11 05:30:06;;;;;;;29.27;9.18;;;9.50;99.90;;;;;;6240679;22;20008;-62
2021/11/11 05:32:33;;;;;;;23.27;8.63;;;9.50;99.90;;;;;;6211683;23;20008;-62
2021/11/11 05:34:59;;;;;;;25.08;8.55;;;9.50;99.90;;;;;;6240520;23;20000;-61
2021/11/11 05:37:25;;;;;;;24.15;9.00;;;9.50;99.90;;;;;;6240381;23;20004;-63
2021/11/11 05:39:51;;;;;;;26.20;8.70;;;9.50;99.90;;;;;;6239918;22;20019;-62
2021/11/11 05:42:16;;;;;;;27.00;9.38;;;9.60;99.90;;;;;;6213822;23;20008;-62
2021/11/11 05:44:42;;;;;;;29.02;9.57;;;9.60;99.90;;;;;;6240396;23;20031;-62
2021/11/11 05:47:08;;;;;;;25.08;8.65;;;9.60;99.90;;;;;;6241022;23;20107;-61
2021/11/11 05:49:33;;;;;;;21.60;9.32;;;9.60;99.90;;;;;;6239605;22;20019;-62
2021/11/11 05:51:59;;;;;;;23.70;7.88;;;9.60;99.90;;;;;;6211881;23;20008;-62
2021/11/11 05:54:24;;;;;;;27.75;8.57;;;9.70;99.90;;;;;;6237714;23;20264;-63
2021/11/11 05:56:50;;;;;;;26.38;9.63;;;9.70;99.90;;;;;;6236031;23;20345;-62
2021/11/11 05:59:16;;;;;;;20.15;8.27;;;9.70;99.90;;;;;;6237476;22;20442;-61
2021/11/11 06:01:41;;;;;;;38.78;9.20;;;9.70;99.90;;;;;;6234540;23;20308;-62
2021/11/11 06:04:07;;;;;;;20.95;7.88;;;9.60;99.90;;;;;;6237175;23;20008;-61
2021/11/11 06:06:33;;;;;;;24.83;8.93;;;9.60;99.90;;;;;;6236382;23;20457;-62
2021/11/11 06:08:59;;;;;;;25.55;7.72;;;9.70;99.90;;;;;;6236925;22;20016;-62
2021/11/11 06:11:25;;;;;;;32.10;9.18;;;9.70;99.90;;;;;;6236858;23;20018;-62
2021/11/11 06:13:51;;;;;;;23.77;7.95;;;9.70;99.90;;;;;;6209933;23;20091;-61
2021/11/11 06:16:16;;;;;;;28.38;8.90;;;9.60;99.90;;;;;;6237291;23;20396;-62
2021/11/11 06:18:42;;;;;;;19.55;8.18;;;9.60;99.90;;;;;;6235670;23;20011;-62
2021/11/11 06:21:08;;;;;;;19.70;7.55;;;9.60;99.90;;;;;;6236926;22;20323;-61
2021/11/11 06:23:34;;;;;;;26.27;9.95;;;9.60;99.90;;;;;;6234241;23;20008;-62
2021/11/11 06:26:00;;;;;;;30.85;8.80;;;9.60;99.90;;;;;;6235032;23;20015;-62
2021/11/11 06:28:26;;;;;;;20.77;8.00;;;9.60;99.90;;;;;;6235528;23;20008;-62
2021/11/11 06:30:52;;;;;;;25.15;8.13;;;9.50;99.90;;;;;;6234271;22;20008;-62
2021/11/11 06:33:18;;;;;;;20.92;8.35;;;9.50;99.90;;;;;;6207840;23;20586;-64
2021/11/11 06:35:43;;;;;;;31.13;8.70;;;9.60;99.90;;;;;;6233359;23;20016;-62
2021/11/11 06:38:09;;;;;;;26.85;8.55;;;9.60;99.90;;;;;;6235946;23;20082;-62
2021/11/11 06:40:35;;;;;;;24.80;8.80;;;9.60;99.90;;;;;;6234825;22;20434;-61
2021/11/11 06:43:02;;;;;;;30.50;9.82;;;9.60;99.90;;;;;;6235769;23;20004;-62
2021/11/11 06:45:35;;;;;;;22.33;8.18;;;9.60;99.90;;;;;;6236442;23;20113;-62
2021/11/11 06:48:00;;;;;;;24.05;8.48;;;9.50;99.90;;;;;;6235426;22;20004;-61
2021/11/11 06:50:26;;;;;;;29.58;9.63;;;9.60;99.90;;;;;;6234185;22;20028;-62
2021/11/11 06:52:52;;;;;;;30.35;9.25;;;9.60;99.90;;;;;;6235171;22;20019;-62
2021/11/11 06:55:17;;;;;;;27.63;8.85;;;9.50;99.90;;;;;;6235130;22;20008;-62
2021/11/11 06:57:43;;;;;;;22.88;8.32;;;9.60;99.90;;;;;;6235676;22;20034;-62
2021/11/11 07:00:11;;;;;;;25.48;8.15;;;9.60;99.90;;;;;;6235489;22;20015;-63
2021/11/11 07:02:37;;;;;;;22.85;8.55;;;9.50;99.90;;;;;;6234457;22;20350;-64
2021/11/11 07:05:03;;;;;;;22.67;8.63;;;9.60;99.90;;;;;;6236263;22;20008;-62
2021/11/11 07:07:29;;;;;;;28.90;9.82;;;9.60;99.90;;;;;;6234552;22;20008;-62
2021/11/11 07:09:55;;;;;;;26.02;9.18;;;9.60;99.90;;;;;;6233849;22;20008;-61
2021/11/11 07:12:21;;;;;;;25.92;10.07;;;9.60;99.90;;;;;;6233371;22;20023;-62
2021/11/11 07:14:47;;;;;;;27.20;7.80;;;9.60;99.90;;;;;;6233987;22;20342;-62
2021/11/11 07:17:12;;;;;;;24.23;8.38;;;9.60;99.90;;;;;;6234846;22;20000;-62
2021/11/11 07:19:38;;;;;;;19.80;8.95;;;9.60;99.90;;;;;;6235921;22;20755;-62
2021/11/11 07:22:04;;;;;;;31.35;9.23;;;9.60;99.90;;;;;;6233622;23;20452;-63
2021/11/11 07:24:30;;;;;;;28.50;9.60;;;9.70;99.90;;;;;;6235233;22;20083;-62
2021/11/11 07:26:57;;;;;;;28.30;9.40;;;9.70;99.90;;;;;;6235552;22;20624;-62
2021/11/11 07:29:23;;;;;;;29.63;8.60;;;9.70;99.90;;;;;;6236400;22;20057;-61
2021/11/11 07:31:52;;;;;;;26.73;9.02;;;9.70;99.90;;;;;;6236288;22;20028;-61
2021/11/11 07:34:18;;;;;;;21.50;8.40;;;9.70;99.90;;;;;;6236603;22;20377;-62
2021/11/11 07:36:45;;;;;;;25.92;8.80;;;9.70;99.90;;;;;;6236765;22;20004;-62
2021/11/11 07:39:12;;;;;;;22.67;8.70;;;9.70;99.90;;;;;;6236884;22;20004;-64
2021/11/11 07:41:38;;;;;;;24.60;10.15;;;9.80;99.90;;;;;;6236399;22;19996;-62
2021/11/11 07:44:05;;;;;;;28.58;8.88;;;9.80;99.90;;;;;;6237238;22;20000;-62
2021/11/11 07:46:33;;;;;;;19.15;8.10;;;9.80;99.90;;;;;;6235973;22;20012;-62
2021/11/11 07:49:00;;;;;;;25.92;8.57;;;9.80;99.90;;;;;;6237070;22;20008;-63
2021/11/11 07:51:25;;;;;;;20.45;8.82;;;9.80;99.90;;;;;;6236498;22;20058;-61
2021/11/11 07:53:51;;;;;;;25.95;9.68;;;9.80;99.90;;;;;;6234226;22;20458;-62
2021/11/11 07:56:16;;;;;;;21.92;9.32;;;9.90;99.90;;;;;;6236917;22;20422;-62
2021/11/11 07:58:42;;;;;;;30.27;8.80;;;9.90;99.90;;;;;;6236577;22;20008;-61
2021/11/11 08:01:08;;;;;;;25.10;8.27;;;9.90;99.90;;;;;;6236375;22;20038;-62
2021/11/11 08:03:33;;;;;;;24.02;9.52;;;9.90;99.90;;;;;;6235075;22;20012;-62
2021/11/11 08:05:59;;;;;;;21.85;8.82;;;9.90;99.90;;;;;;6236936;22;20012;-62
2021/11/11 08:08:24;;;;;;;26.17;9.55;;;10.00;99.90;;;;;;6236027;22;20442;-61
2021/11/11 08:10:50;;;;;;;20.38;8.85;;;10.00;99.90;;;;;;6236536;22;20354;-62
2021/11/11 08:13:16;;;;;;;23.88;10.10;;;10.00;99.90;;;;;;6238185;22;20049;-62
2021/11/11 08:15:42;;;;;;;20.45;8.38;;;10.00;99.90;;;;;;6237543;22;20417;-63
2021/11/11 08:18:08;;;;;;;26.35;8.85;;;10.00;99.90;;;;;;6237398;23;20702;-62
2021/11/11 08:20:34;;;;;;;23.88;9.23;;;10.00;99.90;;;;;;6235845;22;20012;-61
2021/11/11 08:22:59;;;;;;;24.38;9.02;;;10.00;99.90;;;;;;6237091;23;20087;-62
2021/11/11 08:25:25;;;;;;;23.45;8.65;;;10.00;99.90;;;;;;6237609;22;20393;-61
2021/11/11 08:27:51;;;;;;;24.95;9.57;;;10.00;99.90;;;;;;6238313;22;21525;-62
2021/11/11 08:30:18;;;;;;;33.30;8.93;;;10.00;99.90;;;;;;6237900;22;20046;-62
2021/11/11 08:32:46;;;;;;;25.90;9.52;;;10.00;99.90;;;;;;6236077;22;20817;-62
2021/11/11 08:35:13;;;;;;;25.48;8.18;;;10.10;99.90;;;;;;6238782;22;20004;-63
2021/11/11 08:37:42;;;;;;;23.35;8.30;;;10.00;99.90;;;;;;6238055;22;20087;-62
2021/11/11 08:40:09;;;;;;;24.98;8.65;;;10.00;99.90;;;;;;6238755;22;20338;-62
2021/11/11 08:42:34;;;;;;;33.13;9.73;;;10.00;99.90;;;;;;6236800;22;20004;-62
2021/11/11 08:45:00;;;;;;;24.15;8.80;;;9.90;99.90;;;;;;6238828;22;20020;-62
2021/11/11 08:47:26;;;;;;;26.30;8.45;;;9.90;99.90;;;;;;6238274;22;20087;-62
2021/11/11 08:49:53;;;;;;;23.60;9.32;;;10.00;99.90;;;;;;6238898;22;20099;-63
2021/11/11 08:52:20;;;;;;;34.65;10.43;;;10.00;99.90;;;;;;6237909;22;20066;-63
2021/11/11 08:54:45;;;;;;;20.17;8.45;;;10.10;99.90;;;;;;6238970;22;20059;-62
2021/11/11 08:57:11;;;;;;;24.13;8.60;;;10.10;99.90;;;;;;6235693;22;20003;-65
2021/11/11 08:59:39;;;;;;;27.58;9.60;;;10.20;99.90;;;;;;6236176;22;20004;-63
2021/11/11 09:02:05;;;;;;;24.83;8.90;;;10.20;99.90;;;;;;6238799;22;20386;-62
2021/11/11 09:04:30;;;;;;;26.55;8.90;;;10.20;99.90;;;;;;6238681;22;20062;-63
2021/11/11 09:06:58;;;;;;;21.80;9.07;;;10.20;99.90;;;;;;6236966;22;20451;-63
2021/11/11 09:09:24;;;;;;;24.33;8.75;;;10.30;99.90;;;;;;6238609;22;20004;-63
2021/11/11 09:11:50;;;;;;;20.58;8.00;;;10.20;99.90;;;;;;6236601;22;20010;-62
2021/11/11 09:14:16;;;;;;;28.77;9.52;;;10.30;99.90;;;;;;6237859;22;20327;-62
2021/11/11 09:16:43;;;;;;;21.83;8.55;;;10.50;99.90;;;;;;6237615;22;20014;-63
2021/11/11 09:19:09;;;;;;;26.85;9.13;;;10.50;99.90;;;;;;6238735;22;20035;-61
2021/11/11 09:21:35;;;;;;;25.25;8.82;;;10.50;99.90;;;;;;6234765;22;20026;-62
2021/11/11 09:24:01;;;;;;;34.58;10.18;;;10.50;99.90;;;;;;6236548;23;20090;-62
2021/11/11 09:26:27;;;;;;;25.80;9.25;;;10.60;99.90;;;;;;6237462;22;20023;-61
2021/11/11 09:28:53;;;;;;;24.10;9.52;;;10.50;99.90;;;;;;6235464;22;20004;-63
2021/11/11 09:31:20;;;;;;;26.58;10.18;;;10.50;99.90;;;;;;6238376;22;20034;-62
2021/11/11 09:33:47;;;;;;;24.88;9.45;;;10.70;99.90;;;;;;6237486;22;20087;-62
2021/11/11 09:36:14;;;;;;;25.35;9.13;;;10.60;99.90;;;;;;6237453;22;20008;-62
2021/11/11 09:38:40;;;;;;;26.30;8.77;;;10.70;99.90;;;;;;6237065;22;20026;-63
2021/11/11 09:41:05;;;;;;;27.50;11.00;;;10.70;99.90;;;;;;6235290;22;20450;-62
2021/11/11 09:43:32;;;;;;;20.70;8.65;;;10.70;99.90;;;;;;6237587;22;20012;-62
2021/11/11 09:45:58;;;;;;;30.70;10.80;;;10.70;99.90;;;;;;6237873;22;20016;-62
2021/11/11 09:48:25;;;;;;;17.45;8.48;;;10.80;99.90;;;;;;6235879;22;20004;-62
2021/11/11 09:50:51;;;;;;;29.05;9.82;;;10.90;99.90;;;;;;6233534;22;20392;-61
2021/11/11 09:53:23;;;;;;;24.80;9.30;;;10.80;99.90;;;;;;6237463;22;20016;-62
2021/11/11 09:58:34;;;;;;;24.27;8.98;;;10.90;99.90;;;;;;6237092;22;20505;-65
2021/11/11 10:01:02;;;;;;;24.95;9.55;;;10.90;99.90;;;;;;6238223;22;20012;-62
2021/11/11 10:03:27;;;;;;;24.98;8.93;;;10.80;99.90;;;;;;6235077;22;20012;-62
2021/11/11 10:05:54;;;;;;;33.22;10.77;;;10.80;99.90;;;;;;6235403;22;20107;-62
2021/11/11 10:08:38;;;;;;;27.15;9.75;;;10.90;99.90;;;;;;6235221;22;20758;-62
2021/11/11 10:11:09;;;;;;;24.92;9.75;;;10.80;99.90;;;;;;6237696;22;20095;-62
2021/11/11 10:13:35;;;;;;;25.88;9.98;;;10.80;99.90;;;;;;6236300;22;20069;-62
2021/11/11 10:16:13;;;;;;;32.38;10.38;;;10.80;99.90;;;;;;6237726;22;20008;-63
2021/11/11 10:18:46;;;;;;;29.10;10.80;;;11.00;99.90;;;;;;6234888;22;20008;-62
2021/11/11 10:21:30;;;;;;;31.20;11.30;;;11.00;99.90;;;;;;6237353;22;20008;-63
2021/11/11 10:24:10;;;;;;;26.88;10.02;;;11.00;99.90;;;;;;6237574;22;20012;-62
2021/11/11 10:26:41;;;;;;;28.40;10.83;;;11.10;99.90;;;;;;6237076;22;20020;-62
2021/11/11 10:29:30;;;;;;;30.23;10.65;;;11.10;99.90;;;;;;6237553;22;20085;-62
2021/11/11 10:32:01;;;;;;;33.70;10.68;;;11.20;99.90;;;;;;6236790;22;20073;-62
2021/11/11 10:34:27;;;;;;;33.90;11.65;;;11.20;99.90;;;;;;6237060;22;20012;-62
2021/11/11 10:36:54;;;;;;;27.40;10.18;;;11.30;99.90;;;;;;6237235;22;20008;-62
2021/11/11 10:39:24;;;;;;;29.10;10.40;;;11.30;99.90;;;;;;6234754;22;20334;-62
2021/11/11 10:41:50;;;;;;;25.55;10.85;;;11.40;99.90;;;;;;6236923;22;20011;-62
2021/11/11 10:44:27;;;;;;;24.92;10.68;;;11.50;99.90;;;;;;6237183;22;20015;-62
2021/11/11 10:47:03;;;;;;;28.05;10.27;;;11.50;99.90;;;;;;6237397;22;21091;-62
2021/11/11 10:49:43;;;;;;;34.20;11.05;;;11.50;99.90;;;;;;6238599;22;20862;-62
2021/11/11 10:52:27;;;;;;;23.03;10.03;;;11.40;99.90;;;;;;6238194;22;20392;-62
2021/11/11 10:55:00;;;;;;;26.30;9.90;;;11.50;99.90;;;;;;6237273;22;20008;-63
2021/11/11 10:57:35;;;;;;;37.78;10.60;;;11.50;99.90;;;;;;6237696;22;20442;-62
2021/11/11 11:00:18;;;;;;;31.88;11.35;;;11.60;99.90;;;;;;6237832;22;20008;-62
2021/11/11 11:03:07;;;;;;;23.70;11.10;;;11.60;99.90;;;;;;6236092;22;20409;-65
2021/11/11 11:05:37;;;;;;;29.38;9.50;;;11.60;99.90;;;;;;6238027;22;20492;-61
2021/11/11 11:08:11;;;;;;;25.10;11.07;;;11.60;99.90;;;;;;6238261;22;20050;-63
2021/11/11 11:10:41;;;;;;;28.20;11.38;;;11.60;99.90;;;;;;6236926;22;20635;-62
2021/11/11 11:13:15;;;;;;;31.20;10.02;;;11.70;99.90;;;;;;6236606;22;20016;-62
2021/11/11 11:15:53;;;;;;;25.83;10.93;;;11.70;99.90;;;;;;6238005;22;20079;-63
2021/11/11 11:18:47;;;;;;;24.98;10.30;;;11.70;99.90;;;;;;6238216;22;20457;-63
2021/11/11 11:21:16;;;;;;;24.95;9.98;;;11.70;99.90;;;;;;6189459;22;20016;-62
2021/11/11 11:23:45;;;;;;;25.83;11.00;;;11.60;99.90;;;;;;6237791;22;20099;-62
2021/11/11 11:26:13;;;;;;;33.22;11.48;;;11.50;99.90;;;;;;6237633;22;20031;-62
2021/11/11 11:28:59;;;;;;;26.98;10.40;;;11.50;99.90;;;;;;6236818;22;20078;-62
2021/11/11 11:31:50;;;;;;;26.42;10.35;;;11.60;99.90;;;;;;6237961;22;20090;-62
2021/11/11 11:34:22;;;;;;;30.10;11.25;;;11.50;99.90;;;;;;6236995;22;20023;-62
2021/11/11 11:36:52;;;;;;;27.15;10.77;;;11.60;99.90;;;;;;6234761;22;20015;-62
2021/11/11 11:39:31;;;;;;;24.87;10.50;;;11.60;99.90;;;;;;6234677;22;20012;-62
2021/11/11 11:42:08;;;;;;;25.35;9.88;;;11.60;99.90;;;;;;6236252;22;20012;-63
2021/11/11 11:44:48;;;;;;;25.13;10.10;;;11.70;99.90;;;;;;6235327;22;20012;-62
2021/11/11 11:47:33;;;;;;;27.67;10.48;;;11.70;99.90;;;;;;6238616;22;20008;-61
2021/11/11 11:50:04;;;;;;;27.48;10.55;;;11.70;99.90;;;;;;6236656;22;20008;-62
2021/11/11 11:52:32;;;;;;;24.95;10.95;;;11.70;99.90;;;;;;6236741;22;20019;-62
2021/11/11 11:59:59;;;;;;;21.23;9.65;;;11.80;99.90;;;;;;6239023;22;20004;-62
2021/11/11 12:05:26;;;;;;;23.83;10.23;;;11.80;99.90;;;;;;6190032;22;20062;-63
2021/11/11 12:08:04;;;;;;;27.08;10.43;;;11.80;99.90;;;;;;6238615;22;20004;-61
2021/11/11 12:10:38;;;;;;;34.50;11.13;;;11.80;99.90;;;;;;6238440;22;20012;-61
2021/11/11 12:40:06;;;;;;;31.23;11.65;;;11.40;99.90;;;;;;6237250;22;20010;-64
2021/11/11 12:42:39;;;;;;;32.03;13.05;;;11.40;99.90;;;;;;6236300;22;20108;-62
2021/11/11 12:45:04;;;;;;;30.35;11.98;;;11.40;99.90;;;;;;6237157;22;20015;-62
2021/11/11 12:47:34;;;;;;;32.03;12.70;;;11.30;99.90;;;;;;6237020;22;20354;-61
2021/11/11 12:50:24;;;;;;;33.20;12.60;;;11.30;99.90;;;;;;6236678;22;20343;-61
2021/11/11 12:53:10;;;;;;;35.38;12.63;;;11.20;99.90;;;;;;6234505;22;20376;-63
2021/11/11 12:55:37;;;;;;;34.03;12.80;;;11.10;99.90;;;;;;6236857;22;20012;-61
2021/11/11 12:58:04;;;;;;;35.75;13.38;;;11.10;99.90;;;;;;6237152;22;20034;-62
2021/11/11 13:00:57;;;;;;;30.75;12.77;;;11.20;99.90;;;;;;6237582;22;20016;-61
2021/11/11 13:03:49;;;;;;;28.40;11.85;;;11.20;99.90;;;;;;6227353;22;20008;-62
2021/11/11 13:06:35;;;;;;;28.75;11.07;;;11.20;99.90;;;;;;6237501;22;20023;-61
2021/11/11 13:09:26;;;;;;;27.50;11.40;;;11.30;99.90;;;;;;6238151;22;20019;-62
2021/11/11 13:11:57;;;;;;;30.13;10.25;;;11.30;99.90;;;;;;6214836;22;20016;-62
2021/11/11 13:14:31;;;;;;;26.67;10.80;;;11.30;99.90;;;;;;6237982;22;20056;-62
2021/11/11 13:16:57;;;;;;;27.63;10.98;;;11.40;99.90;;;;;;6237741;22;20346;-61
2021/11/11 13:19:41;;;;;;;25.27;10.30;;;11.40;99.90;;;;;;6237872;22;20012;-62
2021/11/11 13:22:40;;;;;;;47.35;10.32;;;11.40;99.90;;;;;;6238015;22;20008;-62
2021/11/11 13:25:20;;;;;;;27.20;9.88;;;11.40;99.90;;;;;;6232916;22;20051;-62
2021/11/11 13:28:26;;;;;;;22.98;10.15;;;11.40;99.90;;;;;;6235944;22;20102;-62
2021/11/11 13:59:34;;;;;;;20.27;9.57;;;11.70;99.90;;;;;;6235729;22;20098;-61
2021/11/11 16:26:18;;;;;;;30.95;10.65;;;11.30;99.90;;;;;;6235542;23;20358;-62
2021/11/11 16:28:51;;;;;;;27.35;10.25;;;11.30;99.90;;;;;;6235953;23;20012;-62
2021/11/11 16:31:22;;;;;;;24.67;9.48;;;11.30;99.90;;;;;;6233323;22;20099;-62
2021/11/11 16:33:49;;;;;;;22.27;9.07;;;11.30;99.90;;;;;;6234025;23;20012;-63
2021/11/11 16:36:16;;;;;;;27.63;10.02;;;11.30;99.90;;;;;;6233751;23;20069;-62
2021/11/11 16:38:42;;;;;;;27.80;9.93;;;11.30;99.90;;;;;;6236894;23;20090;-62
2021/11/11 16:41:08;;;;;;;27.15;9.52;;;11.20;99.90;;;;;;6236633;22;20011;-63